createdAt,value
2018-09-15T00:01:30.806Z,87.35
2018-09-15T00:04:01.475Z,87.67
2018-09-15T00:06:32.106Z,86.95
2018-09-15T00:09:02.729Z,86.66
2018-09-15T00:11:33.092Z,86.18
2018-09-15T00:14:03.930Z,86.22
2018-09-15T00:16:34.645Z,86.45
2018-09-15T00:19:05.229Z,86.86
2018-09-15T00:21:36.434Z,86.61
2018-09-15T00:24:07.557Z,86.74
2018-09-15T00:26:38.102Z,86.37
2018-09-15T00:29:10.196Z,85.86
2018-09-15T00:31:41.261Z,86.38
2018-09-15T00:34:12.079Z,86.25
2018-09-15T00:36:42.629Z,86.10
2018-09-15T00:39:13.484Z,85.65
2018-09-15T00:41:44.136Z,85.40
2018-09-15T00:44:14.561Z,86.03
2018-09-15T00:46:45.141Z,86.19
2018-09-15T00:49:15.668Z,86.48
2018-09-15T00:51:46.240Z,86.69
2018-09-15T00:54:17.407Z,86.52
2018-09-15T00:56:48.137Z,86.97
2018-09-15T00:59:18.665Z,86.62
2018-09-15T01:01:49.209Z,86.56
2018-09-15T01:04:20.027Z,86.82
2018-09-15T01:06:50.526Z,87.05
2018-09-15T01:09:20.810Z,86.71
2018-09-15T01:11:51.557Z,86.85
2018-09-15T01:14:22.194Z,86.59
2018-09-15T01:16:53.007Z,87.16
2018-09-15T01:19:23.565Z,86.96
2018-09-15T01:21:54.279Z,87.18
2018-09-15T01:24:25.036Z,86.95
2018-09-15T01:26:55.744Z,87.34
2018-09-15T01:29:26.320Z,86.90
2018-09-15T01:31:56.595Z,87.05
2018-09-15T01:34:27.616Z,86.81
2018-09-15T01:36:58.139Z,86.47
2018-09-15T01:39:28.991Z,85.86
2018-09-15T01:41:59.852Z,86.44
2018-09-15T01:44:31.011Z,86.20
2018-09-15T01:47:01.255Z,86.35
2018-09-15T01:49:32.280Z,85.94
2018-09-15T01:52:02.941Z,86.24
2018-09-15T01:54:33.563Z,85.53
2018-09-15T01:57:04.112Z,85.81
2018-09-15T01:59:34.633Z,85.20
2018-09-15T02:02:05.366Z,85.41
2018-09-15T02:04:35.781Z,85.89
2018-09-15T02:07:06.706Z,86.04
2018-09-15T02:09:37.242Z,85.86
2018-09-15T02:12:07.759Z,86.39
2018-09-15T02:14:39.003Z,86.49
2018-09-15T02:17:10.268Z,86.77
2018-09-15T02:19:41.048Z,86.54
2018-09-15T02:22:11.673Z,87.04
2018-09-15T02:24:42.248Z,87.28
2018-09-15T02:27:13.061Z,87.38
2018-09-15T02:29:44.544Z,87.05
2018-09-15T02:32:15.079Z,86.84
2018-09-15T02:34:45.626Z,86.87
2018-09-15T02:37:16.252Z,87.14
2018-09-15T02:39:46.938Z,86.94
2018-09-15T02:42:17.806Z,86.75
2018-09-15T02:44:48.382Z,86.60
2018-09-15T02:47:19.128Z,86.89
2018-09-15T02:49:49.665Z,87.05
2018-09-15T02:52:20.485Z,87.11
2018-09-15T02:54:50.955Z,86.97
2018-09-15T02:57:21.746Z,87.21
2018-09-15T02:59:52.089Z,87.30
2018-09-15T03:02:23.210Z,87.56
2018-09-15T03:04:54.260Z,87.46
2018-09-15T03:07:24.817Z,87.25
2018-09-15T03:09:55.315Z,87.19
2018-09-15T03:12:25.856Z,86.99
2018-09-15T03:14:56.659Z,87.49
2018-09-15T03:17:26.973Z,87.90
2018-09-15T03:19:57.503Z,88.20
2018-09-15T03:22:28.047Z,88.12
2018-09-15T03:24:58.632Z,87.98
2018-09-15T03:27:29.128Z,88.19
2018-09-15T03:30:00.138Z,89.09
2018-09-15T03:32:30.512Z,89.63
2018-09-15T03:35:01.040Z,89.96
2018-09-15T03:37:32.379Z,89.80
2018-09-15T03:40:04.824Z,90.29
2018-09-15T03:42:36.779Z,89.67
2018-09-15T03:45:09.168Z,90.06
2018-09-15T03:47:40.296Z,89.77
2018-09-15T03:50:10.834Z,89.88
2018-09-15T03:52:41.493Z,89.81
2018-09-15T03:55:12.937Z,89.52
2018-09-15T03:57:43.508Z,89.46
2018-09-15T04:00:14.934Z,88.74
2018-09-15T04:02:45.552Z,88.85
2018-09-15T04:05:16.880Z,88.75
2018-09-15T04:07:47.175Z,88.47
2018-09-15T04:10:18.003Z,88.20
2018-09-15T04:12:48.626Z,87.79
2018-09-15T04:15:21.175Z,87.47
2018-09-15T04:17:52.063Z,87.27
2018-09-15T04:20:23.876Z,86.83
2018-09-15T04:22:54.674Z,86.79
2018-09-15T04:25:25.527Z,87.38
2018-09-15T04:27:56.179Z,88.16
2018-09-15T04:30:26.808Z,88.44
2018-09-15T04:32:57.179Z,87.74
2018-09-15T04:35:27.707Z,88.12
2018-09-15T04:37:58.442Z,87.24
2018-09-15T04:40:28.712Z,87.47
2018-09-15T04:42:59.912Z,87.73
2018-09-15T04:45:30.623Z,88.14
2018-09-15T04:48:01.473Z,88.12
2018-09-15T04:50:31.732Z,88.06
2018-09-15T04:53:02.480Z,88.91
2018-09-15T04:55:33.048Z,89.04
2018-09-15T04:58:04.122Z,88.86
2018-09-15T05:00:34.543Z,88.81
2018-09-15T05:03:05.332Z,88.84
2018-09-15T05:05:35.904Z,88.16
2018-09-15T05:08:06.438Z,88.20
2018-09-15T05:10:36.939Z,88.21
2018-09-15T05:13:08.167Z,88.62
2018-09-15T05:15:39.471Z,88.41
2018-09-15T05:18:10.325Z,87.76
2018-09-15T05:20:41.424Z,87.25
2018-09-15T05:23:11.777Z,87.55
2018-09-15T05:25:42.499Z,87.03
2018-09-15T05:28:13.036Z,86.90
2018-09-15T05:30:43.804Z,87.24
2018-09-15T05:33:14.353Z,87.50
2018-09-15T05:35:44.947Z,87.50
2018-09-15T05:38:15.744Z,87.57
2018-09-15T05:40:46.303Z,87.68
2018-09-15T05:43:16.945Z,85.82
2018-09-15T05:45:48.463Z,86.06
2018-09-15T05:48:18.672Z,86.31
2018-09-15T05:50:49.878Z,85.80
2018-09-15T05:53:20.451Z,86.43
2018-09-15T05:55:51.083Z,85.73
2018-09-15T05:58:21.524Z,86.23
2018-09-15T06:00:54.210Z,86.65
2018-09-15T06:03:24.756Z,86.31
2018-09-15T06:05:55.041Z,85.75
2018-09-15T06:08:25.301Z,85.55
2018-09-15T06:10:55.839Z,85.05
2018-09-15T06:13:29.772Z,84.35
2018-09-15T06:16:00.638Z,83.93
2018-09-15T06:18:31.857Z,84.07
2018-09-15T06:21:02.415Z,83.30
2018-09-15T06:23:32.968Z,83.71
2018-09-15T06:26:04.396Z,83.03
2018-09-15T06:28:36.013Z,82.35
2018-09-15T06:31:07.225Z,81.62
2018-09-15T06:33:37.820Z,80.67
2018-09-15T06:36:08.085Z,80.44
2018-09-15T06:38:39.258Z,80.29
2018-09-15T06:41:09.757Z,79.76
2018-09-15T06:43:41.030Z,78.82
2018-09-15T06:46:11.741Z,78.31
2018-09-15T06:48:42.853Z,78.56
2018-09-15T06:51:13.098Z,77.40
2018-09-15T06:53:43.618Z,77.12
2018-09-15T06:56:14.460Z,77.08
2018-09-15T06:58:44.999Z,76.36
2018-09-15T07:01:15.240Z,75.48
2018-09-15T07:03:45.626Z,75.92
2018-09-15T07:06:16.466Z,75.06
2018-09-15T07:08:46.971Z,75.98
2018-09-15T07:11:18.549Z,73.92
2018-09-15T07:13:49.129Z,73.59
2018-09-15T07:16:19.968Z,72.87
2018-09-15T07:18:50.789Z,71.99
2018-09-15T07:21:21.610Z,73.03
2018-09-15T07:23:51.841Z,72.19
2018-09-15T07:26:22.664Z,70.62
2018-09-15T07:28:53.419Z,69.68
2018-09-15T07:31:24.125Z,68.05
2018-09-15T07:33:55.029Z,68.55
2018-09-15T07:36:25.550Z,68.25
2018-09-15T07:38:56.244Z,68.79
2018-09-15T07:41:27.119Z,68.74
2018-09-15T07:43:57.396Z,68.87
2018-09-15T07:46:27.827Z,67.47
2018-09-15T07:48:58.406Z,65.29
2018-09-15T07:51:28.927Z,65.25
2018-09-15T07:54:00.041Z,65.23
2018-09-15T07:56:30.298Z,64.90
2018-09-15T07:59:01.113Z,64.01
2018-09-15T08:01:32.232Z,63.84
2018-09-15T08:04:02.565Z,63.89
2018-09-15T08:06:34.277Z,64.58
2018-09-15T08:09:05.929Z,64.17
2018-09-15T08:11:39.525Z,64.09
2018-09-15T08:14:13.535Z,64.17
2018-09-15T08:16:44.672Z,62.45
2018-09-15T08:19:15.768Z,62.86
2018-09-15T08:21:47.061Z,62.51
2018-09-15T08:24:18.064Z,62.44
2018-09-15T08:26:48.739Z,62.82
2018-09-15T08:29:19.717Z,62.04
2018-09-15T08:31:50.705Z,62.36
2018-09-15T08:34:22.347Z,62.20
2018-09-15T08:36:57.411Z,61.65
2018-09-15T08:39:27.929Z,60.23
2018-09-15T08:41:58.453Z,60.93
2018-09-15T08:44:32.248Z,60.35
2018-09-15T08:47:03.257Z,61.27
2018-09-15T08:49:33.520Z,60.99
2018-09-15T08:52:04.072Z,58.00
2018-09-15T08:54:34.769Z,56.79
2018-09-15T08:57:05.659Z,55.61
2018-09-15T08:59:36.803Z,53.87
2018-09-15T09:02:14.097Z,55.40
2018-09-15T09:04:45.263Z,54.04
2018-09-15T09:07:15.830Z,53.51
2018-09-15T09:09:46.448Z,54.71
2018-09-15T09:12:17.001Z,54.80
2018-09-15T09:14:47.332Z,54.64
2018-09-15T09:17:17.898Z,54.97
2018-09-15T09:19:48.476Z,56.71
2018-09-15T09:22:18.993Z,56.51
2018-09-15T09:24:49.523Z,56.50
2018-09-15T09:27:20.100Z,56.47
2018-09-15T09:29:51.213Z,56.00
2018-09-15T09:32:21.974Z,56.64
2018-09-15T09:34:52.852Z,55.98
2018-09-15T09:37:23.400Z,55.15
2018-09-15T09:39:53.957Z,56.04
2018-09-15T09:42:25.012Z,56.03
2018-09-15T09:44:55.644Z,56.74
2018-09-15T09:47:26.444Z,56.49
2018-09-15T09:49:57.178Z,55.67
2018-09-15T09:52:27.399Z,53.10
2018-09-15T09:54:57.913Z,42.32
2018-09-15T09:57:28.111Z,42.08
2018-09-15T09:59:58.354Z,45.23
2018-09-15T10:02:28.633Z,49.15
2018-09-15T10:04:58.920Z,50.84
2018-09-15T10:07:29.426Z,50.55
2018-09-15T10:09:59.717Z,52.10
2018-09-15T10:12:30.384Z,52.40
2018-09-15T10:15:01.037Z,51.98
2018-09-15T10:17:31.775Z,50.13
2018-09-15T10:20:03.485Z,50.79
2018-09-15T10:22:34.467Z,50.53
2018-09-15T10:25:05.282Z,45.86
2018-09-15T10:27:35.810Z,49.14
2018-09-15T10:30:06.483Z,49.64
2018-09-15T10:32:37.455Z,49.74
2018-09-15T10:35:07.828Z,44.82
2018-09-15T10:37:38.061Z,43.01
2018-09-15T10:40:08.588Z,43.75
2018-09-15T10:42:39.244Z,45.14
2018-09-15T10:45:10.000Z,47.23
2018-09-15T10:47:40.655Z,45.46
2018-09-15T10:50:11.352Z,45.83
2018-09-15T10:52:42.009Z,46.07
2018-09-15T10:55:13.533Z,46.33
2018-09-15T10:57:44.032Z,46.91
2018-09-15T11:00:14.590Z,47.19
2018-09-15T11:02:47.030Z,47.04
2018-09-15T11:05:17.624Z,46.85
2018-09-15T11:07:48.160Z,46.78
2018-09-15T11:10:18.700Z,46.98
2018-09-15T11:12:49.292Z,45.51
2018-09-15T11:15:19.629Z,44.76
2018-09-15T11:17:50.207Z,44.42
2018-09-15T11:20:20.738Z,45.04
2018-09-15T11:22:51.517Z,47.05
2018-09-15T11:25:21.901Z,46.46
2018-09-15T11:27:52.454Z,45.53
2018-09-15T11:30:23.072Z,45.43
2018-09-15T11:32:53.627Z,46.61
2018-09-15T11:35:24.159Z,47.14
2018-09-15T11:37:54.689Z,47.70
2018-09-15T11:40:25.810Z,49.12
2018-09-15T11:42:56.487Z,50.52
2018-09-15T11:45:27.024Z,51.32
2018-09-15T11:47:57.544Z,51.29
2018-09-15T11:50:28.284Z,50.93
2018-09-15T11:52:59.383Z,52.81
2018-09-15T11:55:30.077Z,53.32
2018-09-15T11:58:00.579Z,52.95
2018-09-15T12:00:33.022Z,52.53
2018-09-15T12:03:03.556Z,52.74
2018-09-15T12:05:33.856Z,52.08
2018-09-15T12:08:04.092Z,54.35
2018-09-15T12:10:34.344Z,53.42
2018-09-15T12:13:05.010Z,54.37
2018-09-15T12:15:35.241Z,52.74
2018-09-15T12:18:06.186Z,51.50
2018-09-15T12:20:36.787Z,50.65
2018-09-15T12:23:07.552Z,50.39
2018-09-15T12:25:38.484Z,48.00
2018-09-15T12:28:08.692Z,46.94
2018-09-15T12:30:39.324Z,47.23
2018-09-15T12:33:09.865Z,46.12
2018-09-15T12:35:41.053Z,43.32
2018-09-15T12:38:12.312Z,43.15
2018-09-15T12:40:42.800Z,42.62
2018-09-15T12:43:13.279Z,43.28
2018-09-15T12:45:43.919Z,45.44
2018-09-15T12:48:14.420Z,45.58
2018-09-15T12:50:45.030Z,44.77
2018-09-15T12:53:15.311Z,44.17
2018-09-15T12:55:46.007Z,44.90
2018-09-15T12:58:20.041Z,45.58
2018-09-15T13:00:50.889Z,45.99
2018-09-15T13:03:21.443Z,45.19
2018-09-15T13:05:52.249Z,44.50
2018-09-15T13:08:22.811Z,47.84
2018-09-15T13:10:53.312Z,47.64
2018-09-15T13:13:24.033Z,47.32
2018-09-15T13:15:54.572Z,48.51
2018-09-15T13:18:25.450Z,47.87
2018-09-15T13:20:56.001Z,48.44
2018-09-15T13:23:26.745Z,47.80
2018-09-15T13:25:57.461Z,47.02
2018-09-15T13:28:28.079Z,47.23
2018-09-15T13:30:58.919Z,48.55
2018-09-15T13:33:29.476Z,49.93
2018-09-15T13:35:59.697Z,49.77
2018-09-15T13:38:30.362Z,50.90
2018-09-15T13:41:00.878Z,51.99
2018-09-15T13:43:31.147Z,51.54
2018-09-15T13:46:01.753Z,51.88
2018-09-15T13:48:32.311Z,52.58
2018-09-15T13:51:03.151Z,52.55
2018-09-15T13:53:35.581Z,53.46
2018-09-15T13:56:06.042Z,54.26
2018-09-15T13:58:36.700Z,55.40
2018-09-15T14:01:07.650Z,54.87
2018-09-15T14:03:38.380Z,55.76
2018-09-15T14:06:09.089Z,55.55
2018-09-15T14:08:39.377Z,56.07
2018-09-15T14:11:09.819Z,55.54
2018-09-15T14:13:40.283Z,54.28
2018-09-15T14:16:10.808Z,54.06
2018-09-15T14:18:41.505Z,53.31
2018-09-15T14:21:17.432Z,53.70
2018-09-15T14:23:47.659Z,54.86
2018-09-15T14:26:18.210Z,54.14
2018-09-15T14:28:48.726Z,53.23
2018-09-15T14:31:18.964Z,52.80
2018-09-15T14:33:49.483Z,53.93
2018-09-15T14:36:20.000Z,53.31
2018-09-15T14:38:50.508Z,54.38
2018-09-15T14:41:21.280Z,55.09
2018-09-15T14:43:51.979Z,55.38
2018-09-15T14:46:22.225Z,55.62
2018-09-15T14:48:52.768Z,55.69
2018-09-15T14:51:23.461Z,56.16
2018-09-15T14:53:53.942Z,55.78
2018-09-15T14:56:24.868Z,56.31
2018-09-15T14:58:55.567Z,56.23
2018-09-15T15:01:26.184Z,56.70
2018-09-15T15:03:56.682Z,55.85
2018-09-15T15:06:27.331Z,56.30
2018-09-15T15:08:58.214Z,56.22
2018-09-15T15:11:28.758Z,56.78
2018-09-15T15:13:59.000Z,56.84
2018-09-15T15:16:29.512Z,56.35
2018-09-15T15:19:00.023Z,56.61
2018-09-15T15:21:30.549Z,56.02
2018-09-15T15:24:01.593Z,56.21
2018-09-15T15:26:32.037Z,56.43
2018-09-15T15:29:02.391Z,55.70
2018-09-15T15:31:32.796Z,56.46
2018-09-15T15:34:03.477Z,56.29
2018-09-15T15:36:34.070Z,56.00
2018-09-15T15:39:05.062Z,56.74
2018-09-15T15:41:35.957Z,57.27
2018-09-15T15:44:06.585Z,57.25
2018-09-15T15:46:37.232Z,55.45
2018-09-15T15:49:07.985Z,55.35
2018-09-15T15:51:38.565Z,54.98
2018-09-15T15:54:09.533Z,55.37
2018-09-15T15:56:39.808Z,55.55
2018-09-15T15:59:14.210Z,55.75
2018-09-15T16:01:45.110Z,56.41
2018-09-15T16:04:15.875Z,56.18
2018-09-15T16:06:46.584Z,57.16
2018-09-15T16:09:17.135Z,57.96
2018-09-15T16:11:47.608Z,57.65
2018-09-15T16:14:18.963Z,58.59
2018-09-15T16:17:04.419Z,59.10
2018-09-15T16:19:34.972Z,59.50
2018-09-15T16:22:06.249Z,59.04
2018-09-15T16:24:36.776Z,58.21
2018-09-15T16:27:07.344Z,58.34
2018-09-15T16:29:37.892Z,58.08
2018-09-15T16:32:08.222Z,58.79
2018-09-15T16:34:38.992Z,58.90
2018-09-15T16:37:09.236Z,58.55
2018-09-15T16:39:39.878Z,58.49
2018-09-15T16:42:10.596Z,58.57
2018-09-15T16:44:41.449Z,58.07
2018-09-15T16:47:12.023Z,58.92
2018-09-15T16:49:42.585Z,58.78
2018-09-15T16:52:13.097Z,59.02
2018-09-15T16:54:43.847Z,60.30
2018-09-15T16:57:14.385Z,60.03
2018-09-15T16:59:45.390Z,61.45
2018-09-15T17:02:16.050Z,62.54
2018-09-15T17:04:46.579Z,63.09
2018-09-15T17:07:17.165Z,62.48
2018-09-15T17:09:48.572Z,63.20
2018-09-15T17:12:19.431Z,63.28
2018-09-15T17:14:50.371Z,62.91
2018-09-15T17:17:21.210Z,64.12
2018-09-15T17:19:52.049Z,63.55
2018-09-15T17:22:22.395Z,64.44
2018-09-15T17:24:53.100Z,64.58
2018-09-15T17:27:23.739Z,64.05
2018-09-15T17:29:54.330Z,62.92
2018-09-15T17:32:24.899Z,63.29
2018-09-15T17:34:55.908Z,62.92
2018-09-15T17:37:26.560Z,63.13
2018-09-15T17:39:57.563Z,63.63
2018-09-15T17:42:28.340Z,64.67
2018-09-15T17:44:58.871Z,66.23
2018-09-15T17:47:30.024Z,66.50
2018-09-15T17:50:00.308Z,66.72
2018-09-15T17:52:30.868Z,66.92
2018-09-15T17:55:01.619Z,66.92
2018-09-15T17:57:32.670Z,66.53
2018-09-15T18:00:04.185Z,66.17
2018-09-15T18:02:34.621Z,66.09
2018-09-15T18:05:06.239Z,66.43
2018-09-15T18:07:36.620Z,66.31
2018-09-15T18:10:07.585Z,66.81
2018-09-15T18:12:38.592Z,67.07
2018-09-15T18:15:10.175Z,67.76
2018-09-15T18:17:40.849Z,67.40
2018-09-15T18:20:11.507Z,67.09
2018-09-15T18:22:42.105Z,67.00
2018-09-15T18:25:12.385Z,67.56
2018-09-15T18:27:43.332Z,67.51
2018-09-15T18:30:14.192Z,66.84
2018-09-15T18:32:44.691Z,66.56
2018-09-15T18:35:15.417Z,66.67
2018-09-15T18:37:46.023Z,66.41
2018-09-15T18:40:16.535Z,66.89
2018-09-15T18:42:47.140Z,66.80
2018-09-15T18:45:17.983Z,66.98
2018-09-15T18:47:48.703Z,67.60
2018-09-15T18:50:19.438Z,67.27
2018-09-15T18:52:49.980Z,67.67
2018-09-15T18:55:20.620Z,67.59
2018-09-15T18:57:51.363Z,67.44
2018-09-15T19:00:23.059Z,67.69
2018-09-15T19:02:53.784Z,67.70
2018-09-15T19:05:24.329Z,66.75
2018-09-15T19:07:54.877Z,67.26
2018-09-15T19:10:25.741Z,67.41
2018-09-15T19:12:56.481Z,67.10
2018-09-15T19:15:26.926Z,66.44
2018-09-15T19:17:57.430Z,66.44
2018-09-15T19:20:27.980Z,66.33
2018-09-15T19:22:58.209Z,66.68
2018-09-15T19:25:29.413Z,66.16
2018-09-15T19:27:59.640Z,66.40
2018-09-15T19:30:29.955Z,66.05
2018-09-15T19:33:00.407Z,65.75
2018-09-15T19:35:30.986Z,65.15
2018-09-15T19:38:01.437Z,64.85
2018-09-15T19:40:31.974Z,65.22
2018-09-15T19:43:02.535Z,64.34
2018-09-15T19:45:34.379Z,65.49
2018-09-15T19:48:05.226Z,65.67
2018-09-15T19:50:36.149Z,65.52
2018-09-15T19:53:06.921Z,65.08
2018-09-15T19:55:37.466Z,64.61
2018-09-15T19:58:08.253Z,64.16
2018-09-15T20:00:38.992Z,64.16
2018-09-15T20:03:13.140Z,65.06
2018-09-15T20:05:44.571Z,65.17
2018-09-15T20:08:15.229Z,65.79
2018-09-15T20:10:45.715Z,67.12
2018-09-15T20:13:16.590Z,67.59
2018-09-15T20:15:45.933Z,67.47
2018-09-15T20:18:15.008Z,67.04
2018-09-15T20:20:45.286Z,66.37
2018-09-15T20:23:15.645Z,65.75
2018-09-15T20:25:46.211Z,66.19
2018-09-15T20:28:16.592Z,66.73
2018-09-15T20:30:47.176Z,66.09
2018-09-15T20:33:17.790Z,66.84
2018-09-15T20:35:48.420Z,66.92
2018-09-15T20:38:20.049Z,66.98
2018-09-15T20:40:50.631Z,67.11
2018-09-15T20:43:21.312Z,67.75
2018-09-15T20:45:51.904Z,66.95
2018-09-15T20:48:22.542Z,66.15
2018-09-15T20:50:54.145Z,65.88
2018-09-15T20:53:25.734Z,66.15
2018-09-15T20:55:56.757Z,65.83
2018-09-15T20:58:27.360Z,65.59
2018-09-15T21:00:57.740Z,65.78
2018-09-15T21:03:28.937Z,66.48
2018-09-15T21:05:59.611Z,66.68
2018-09-15T21:08:30.271Z,67.70
2018-09-15T21:11:00.666Z,68.55
2018-09-15T21:13:31.264Z,68.46
2018-09-15T21:16:01.919Z,68.42
2018-09-15T21:18:33.009Z,68.68
2018-09-15T21:21:03.752Z,68.95
2018-09-15T21:23:34.236Z,69.42
2018-09-15T21:26:05.192Z,69.46
2018-09-15T21:28:36.393Z,69.47
2018-09-15T21:31:07.065Z,69.60
2018-09-15T21:33:38.255Z,70.38
2018-09-15T21:36:09.110Z,70.20
2018-09-15T21:38:39.905Z,70.00
2018-09-15T21:41:10.467Z,70.35
2018-09-15T21:43:41.095Z,70.37
2018-09-15T21:46:11.934Z,70.23
2018-09-15T21:48:43.315Z,70.72
2018-09-15T21:51:16.947Z,71.05
2018-09-15T21:53:47.561Z,71.31
2018-09-15T21:56:18.151Z,71.39
2018-09-15T21:58:49.052Z,71.17
2018-09-15T22:01:19.668Z,70.31
2018-09-15T22:03:55.121Z,70.44
2018-09-15T22:06:25.709Z,70.18
2018-09-15T22:08:56.297Z,71.58
2018-09-15T22:11:26.967Z,71.83
2018-09-15T22:13:57.636Z,71.86
2018-09-15T22:16:28.426Z,71.16
2018-09-15T22:18:59.064Z,70.77
2018-09-15T22:21:29.884Z,71.68
2018-09-15T22:24:00.517Z,71.69
2018-09-15T22:26:31.252Z,70.21
2018-09-15T22:29:02.216Z,71.24
2018-09-15T22:31:33.307Z,71.93
2018-09-15T22:34:03.757Z,72.48
2018-09-15T22:36:34.612Z,72.58
2018-09-15T22:39:07.523Z,72.09
2018-09-15T22:41:39.009Z,71.06
2018-09-15T22:44:09.294Z,70.45
2018-09-15T22:46:39.820Z,70.59
2018-09-15T22:49:10.060Z,70.36
2018-09-15T22:51:40.902Z,69.81
2018-09-15T22:54:11.488Z,70.22
2018-09-15T22:56:42.854Z,70.34
2018-09-15T22:59:14.246Z,71.21
2018-09-15T23:01:44.752Z,72.43
2018-09-15T23:04:16.265Z,73.47
2018-09-15T23:06:46.709Z,73.46
2018-09-15T23:09:17.357Z,74.07
2018-09-15T23:11:47.644Z,74.09
2018-09-15T23:14:18.465Z,75.03
2018-09-15T23:16:49.057Z,75.90
2018-09-15T23:19:20.316Z,75.06
2018-09-15T23:21:50.892Z,74.27
2018-09-15T23:24:21.492Z,73.27
2018-09-15T23:26:52.301Z,73.12
2018-09-15T23:29:22.947Z,72.22
2018-09-15T23:31:53.171Z,73.68
2018-09-15T23:34:23.709Z,74.80
2018-09-15T23:36:54.348Z,75.02
2018-09-15T23:39:24.867Z,74.97
2018-09-15T23:41:55.439Z,75.72
2018-09-15T23:44:25.752Z,75.23
2018-09-15T23:46:56.220Z,75.42
2018-09-15T23:49:27.194Z,74.81
2018-09-15T23:51:57.695Z,74.47
2018-09-15T23:54:28.255Z,74.30
2018-09-15T23:56:59.004Z,74.41
2018-09-15T23:59:29.552Z,74.68
